Time;durP1;ratioP1;P1;durP2;ratioP2;P2;SDS_P1;SDS_P2;PMS_P1;PMS_P2;Temp;Humidity;BMP_temperature;BMP_pressure;BME280_temperature;BME280_humidity;BME280_pressure;Samples;Min_cycle;Max_cycle;Signal;HPM_P1;HPM_P2
2022/11/27 00:01:24;;;;;;;14.00;3.00;;;3.90;99.90;;;;;;4987499;28;20037;-63
2022/11/27 00:03:50;;;;;;;7.97;2.60;;;3.90;99.90;;;;;;5004495;28;20023;-63
2022/11/27 00:06:19;;;;;;;10.48;3.03;;;3.90;99.90;;;;;;5004050;28;20018;-62
2022/11/27 00:08:45;;;;;;;7.20;3.03;;;3.90;99.90;;;;;;5004599;28;20038;-62
2022/11/27 00:11:17;;;;;;;11.82;2.75;;;3.90;99.90;;;;;;5004272;28;20434;-61
2022/11/27 00:13:43;;;;;;;7.20;2.75;;;3.80;99.90;;;;;;5004150;28;20058;-62
2022/11/27 00:16:09;;;;;;;5.45;2.83;;;3.70;99.90;;;;;;5006226;28;20061;-63
2022/11/27 00:18:35;;;;;;;12.40;3.97;;;3.70;99.90;;;;;;5006166;28;20437;-62
2022/11/27 00:21:03;;;;;;;6.68;2.75;;;3.70;99.90;;;;;;5001635;28;20116;-63
2022/11/27 00:23:29;;;;;;;8.57;3.58;;;3.70;99.90;;;;;;5003878;28;20383;-62
2022/11/27 00:25:54;;;;;;;9.10;2.72;;;3.70;99.90;;;;;;5008622;28;20025;-63
2022/11/27 00:28:20;;;;;;;7.18;2.83;;;3.70;99.90;;;;;;5004980;28;20036;-63
2022/11/27 00:30:46;;;;;;;8.70;3.17;;;3.70;99.90;;;;;;5006697;28;20034;-64
2022/11/27 00:33:11;;;;;;;18.90;2.50;;;3.60;99.90;;;;;;5006778;28;20123;-64
2022/11/27 00:35:37;;;;;;;7.47;3.13;;;3.60;99.90;;;;;;5008727;28;20057;-59
2022/11/27 00:38:03;;;;;;;13.25;3.45;;;3.70;99.90;;;;;;5004426;28;20030;-64
2022/11/27 00:40:29;;;;;;;11.50;3.40;;;3.70;99.90;;;;;;5001089;28;20026;-62
2022/11/27 00:42:54;;;;;;;10.27;2.85;;;3.70;99.90;;;;;;5000322;28;20022;-64
2022/11/27 00:45:20;;;;;;;9.93;2.42;;;3.60;99.90;;;;;;5009558;28;20033;-63
2022/11/27 00:47:45;;;;;;;11.98;3.47;;;3.60;99.90;;;;;;5008471;28;20495;-64
2022/11/27 00:50:11;;;;;;;12.98;2.80;;;3.60;99.90;;;;;;5011489;28;20057;-64
2022/11/27 00:52:36;;;;;;;11.20;3.40;;;3.50;99.90;;;;;;5009068;28;20034;-63
2022/11/27 00:55:02;;;;;;;6.40;2.55;;;3.50;99.90;;;;;;5011844;28;20038;-62
2022/11/27 00:57:28;;;;;;;7.10;2.83;;;3.50;99.90;;;;;;5006771;28;20041;-63
2022/11/27 00:59:53;;;;;;;6.28;3.05;;;3.50;99.90;;;;;;5002472;28;20495;-64
2022/11/27 01:02:19;;;;;;;12.02;3.35;;;3.40;99.90;;;;;;5003741;28;20029;-63
2022/11/27 01:04:46;;;;;;;9.35;3.00;;;3.50;99.90;;;;;;4998944;28;20026;-63
2022/11/27 01:07:11;;;;;;;16.55;3.33;;;3.40;99.90;;;;;;5009089;28;20488;-64
2022/11/27 01:09:37;;;;;;;13.25;3.58;;;3.40;99.90;;;;;;5011706;28;20036;-61
2022/11/27 01:12:03;;;;;;;11.82;3.30;;;3.40;99.90;;;;;;4999788;28;22246;-63
2022/11/27 01:14:29;;;;;;;10.70;3.17;;;3.30;99.90;;;;;;5004138;28;20049;-64
2022/11/27 01:16:54;;;;;;;9.20;2.75;;;3.30;99.90;;;;;;5001616;28;20034;-64
2022/11/27 01:19:20;;;;;;;7.85;3.67;;;3.30;99.90;;;;;;5010155;28;20033;-63
2022/11/27 01:21:46;;;;;;;12.23;3.30;;;3.40;99.90;;;;;;5004146;28;20032;-62
2022/11/27 01:24:13;;;;;;;9.48;3.58;;;3.40;99.90;;;;;;5009660;28;20046;-63
2022/11/27 01:26:39;;;;;;;10.02;3.40;;;3.40;99.90;;;;;;5004378;28;20167;-64
2022/11/27 01:29:05;;;;;;;10.02;3.40;;;3.40;99.90;;;;;;5001375;28;20108;-64
2022/11/27 01:31:32;;;;;;;8.75;4.40;;;3.40;99.90;;;;;;4997071;28;20105;-63
2022/11/27 01:34:00;;;;;;;15.02;3.95;;;3.40;99.90;;;;;;4996346;28;20402;-63
2022/11/27 01:36:27;;;;;;;20.65;4.25;;;3.40;99.90;;;;;;5008079;28;20084;-63
2022/11/27 01:38:53;;;;;;;19.92;4.28;;;3.40;99.90;;;;;;5008366;28;20021;-64
2022/11/27 01:41:21;;;;;;;18.80;4.78;;;3.40;99.90;;;;;;5003587;28;20049;-63
2022/11/27 01:43:56;;;;;;;16.85;4.72;;;3.40;99.90;;;;;;5014126;28;20563;-64
2022/11/27 01:46:33;;;;;;;17.35;4.72;;;3.40;99.90;;;;;;5004859;28;20159;-64
2022/11/27 01:49:07;;;;;;;12.85;4.80;;;3.40;99.90;;;;;;5001040;28;20030;-63
2022/11/27 01:51:33;;;;;;;13.18;4.65;;;3.40;99.90;;;;;;5012335;28;20057;-64
2022/11/27 01:53:59;;;;;;;16.42;4.75;;;3.40;99.90;;;;;;5004205;28;20492;-63
2022/11/27 01:56:26;;;;;;;13.52;5.10;;;3.40;99.90;;;;;;5007452;28;20064;-63
2022/11/27 01:58:53;;;;;;;14.65;4.97;;;3.40;99.90;;;;;;4994969;28;20022;-64
2022/11/27 02:01:18;;;;;;;15.43;5.55;;;3.30;99.90;;;;;;5000385;28;20034;-64
2022/11/27 02:03:44;;;;;;;22.92;6.25;;;3.30;99.90;;;;;;5005398;28;20498;-63
2022/11/27 02:06:13;;;;;;;16.63;4.93;;;3.30;99.90;;;;;;5002628;28;20121;-62
2022/11/27 02:08:40;;;;;;;13.13;5.07;;;3.30;99.90;;;;;;5001919;28;20053;-64
2022/11/27 02:11:16;;;;;;;17.13;5.72;;;3.20;99.90;;;;;;5002886;28;20022;-63
2022/11/27 02:13:51;;;;;;;18.13;5.85;;;3.20;99.90;;;;;;4985709;28;20068;-62
2022/11/27 02:16:20;;;;;;;21.55;6.47;;;3.20;99.90;;;;;;5003778;28;20049;-63
2022/11/27 02:18:58;;;;;;;19.73;6.38;;;3.30;99.90;;;;;;5005371;28;20023;-64
2022/11/27 02:21:48;;;;;;;18.77;6.78;;;3.30;99.90;;;;;;5002755;28;20108;-63
2022/11/27 02:24:23;;;;;;;19.17;7.38;;;3.30;99.90;;;;;;5002517;28;20044;-62
2022/11/27 02:27:15;;;;;;;20.05;6.80;;;3.40;99.90;;;;;;5006104;28;20423;-63
2022/11/27 02:29:46;;;;;;;24.40;7.60;;;3.30;99.90;;;;;;4996778;28;20491;-61
2022/11/27 02:32:28;;;;;;;19.48;7.82;;;3.40;99.90;;;;;;5000063;28;20034;-62
2022/11/27 02:35:04;;;;;;;19.48;8.45;;;3.30;99.90;;;;;;5004690;28;20022;-63
2022/11/27 02:37:52;;;;;;;21.48;9.07;;;3.30;99.90;;;;;;5007379;28;20423;-63
2022/11/27 02:40:26;;;;;;;30.02;7.57;;;3.40;99.90;;;;;;5009721;28;20019;-63
2022/11/27 02:42:51;;;;;;;28.05;8.23;;;3.40;99.90;;;;;;5008708;28;20037;-65
2022/11/27 02:45:23;;;;;;;19.13;7.82;;;3.40;99.90;;;;;;5017292;28;20030;-62
2022/11/27 02:47:49;;;;;;;27.52;9.10;;;3.40;99.90;;;;;;5007481;28;20521;-64
2022/11/27 02:50:20;;;;;;;26.73;7.88;;;3.40;99.90;;;;;;5008321;28;20456;-62
2022/11/27 02:52:47;;;;;;;25.30;9.27;;;3.40;99.90;;;;;;5010496;28;20027;-63
2022/11/27 02:55:21;;;;;;;24.95;8.05;;;3.40;99.90;;;;;;5009316;28;20029;-63
2022/11/27 02:57:49;;;;;;;24.67;8.68;;;3.40;99.90;;;;;;5007745;28;20022;-63
2022/11/27 03:00:15;;;;;;;25.48;8.43;;;3.50;99.90;;;;;;5012609;28;20404;-62
2022/11/27 03:02:48;;;;;;;21.95;8.27;;;3.50;99.90;;;;;;5010695;28;20072;-63
2022/11/27 03:05:18;;;;;;;23.42;8.90;;;3.50;99.90;;;;;;5006718;28;20022;-63
2022/11/27 03:07:53;;;;;;;19.27;7.95;;;3.40;99.90;;;;;;5010442;28;20041;-63
2022/11/27 03:10:21;;;;;;;;;;;3.40;99.90;;;;;;5005685;28;20046;-64
2022/11/27 03:12:48;;;;;;;23.42;8.38;;;3.40;99.90;;;;;;4995056;28;20375;-63
2022/11/27 03:15:14;;;;;;;24.17;8.02;;;3.50;99.90;;;;;;5005968;28;20451;-64
2022/11/27 03:17:53;;;;;;;28.75;8.98;;;3.50;99.90;;;;;;5011915;28;20026;-60
2022/11/27 03:20:31;;;;;;;28.27;9.90;;;3.50;99.90;;;;;;5010875;28;20026;-64
2022/11/27 03:22:57;;;;;;;26.95;8.95;;;3.40;99.90;;;;;;5011635;28;20033;-64
2022/11/27 03:25:23;;;;;;;25.75;8.82;;;3.40;99.90;;;;;;5030555;23;20024;-67
2022/11/27 03:27:54;;;;;;;24.88;8.18;;;3.40;99.90;;;;;;5029074;28;20049;-68
2022/11/27 03:30:20;;;;;;;25.77;8.18;;;3.40;99.90;;;;;;5041492;28;20064;-68
2022/11/27 03:32:46;;;;;;;22.08;9.45;;;3.30;99.90;;;;;;5049361;28;20056;-67
2022/11/27 03:35:17;;;;;;;22.67;9.10;;;3.30;99.90;;;;;;5049697;28;20032;-67
2022/11/27 03:37:42;;;;;;;19.50;8.15;;;3.20;99.90;;;;;;5033707;28;20027;-67
2022/11/27 03:40:09;;;;;;;20.67;8.02;;;3.20;99.90;;;;;;5031055;28;20411;-68
2022/11/27 03:42:46;;;;;;;25.00;8.50;;;3.10;99.90;;;;;;5023650;28;20079;-67
2022/11/27 03:45:31;;;;;;;23.70;8.85;;;3.10;99.90;;;;;;5020354;28;20029;-67
2022/11/27 03:48:35;;;;;;;21.83;8.80;;;3.00;99.90;;;;;;5024313;28;20480;-68
2022/11/27 03:51:14;;;;;;;32.20;8.68;;;2.90;99.90;;;;;;5019833;28;20022;-68
2022/11/27 03:53:59;;;;;;;22.63;7.80;;;2.90;99.90;;;;;;5023207;28;20038;-67
2022/11/27 03:56:47;;;;;;;23.60;8.60;;;3.00;99.90;;;;;;5019715;28;20043;-67
2022/11/27 03:59:33;;;;;;;19.98;8.90;;;3.00;99.90;;;;;;5020921;28;20053;-67
2022/11/27 04:01:58;;;;;;;23.27;7.90;;;3.00;99.90;;;;;;5024845;28;20336;-67
2022/11/27 04:04:24;;;;;;;36.78;10.13;;;3.00;99.90;;;;;;5022891;28;20034;-67
2022/11/27 04:06:49;;;;;;;26.08;8.70;;;3.10;99.90;;;;;;5021630;28;20442;-67
2022/11/27 04:09:15;;;;;;;21.40;8.80;;;3.00;99.90;;;;;;5025636;28;20036;-67
2022/11/27 04:11:40;;;;;;;21.10;8.90;;;3.10;99.90;;;;;;5021464;28;20045;-65
2022/11/27 04:14:06;;;;;;;21.70;8.57;;;3.10;99.90;;;;;;5010339;28;20061;-67
2022/11/27 04:16:32;;;;;;;16.55;7.53;;;3.10;99.90;;;;;;5024319;28;20029;-67
2022/11/27 04:18:57;;;;;;;23.58;8.90;;;3.20;99.90;;;;;;5052931;28;20032;-67
2022/11/27 04:21:23;;;;;;;28.25;9.40;;;3.20;99.90;;;;;;5028641;28;20029;-68
2022/11/27 04:23:48;;;;;;;25.15;9.57;;;3.20;99.90;;;;;;5028621;28;21031;-68
2022/11/27 04:26:14;;;;;;;18.05;9.18;;;3.30;99.90;;;;;;5022157;28;20030;-68
2022/11/27 04:28:39;;;;;;;20.50;8.80;;;3.30;99.90;;;;;;5026827;28;20582;-67
2022/11/27 04:31:05;;;;;;;24.20;8.68;;;3.40;99.90;;;;;;5019920;28;20620;-67
2022/11/27 04:33:31;;;;;;;26.70;8.85;;;3.40;99.90;;;;;;5027956;28;20028;-67
2022/11/27 04:35:56;;;;;;;30.25;9.05;;;3.40;99.90;;;;;;5031352;28;20487;-68
2022/11/27 04:38:22;;;;;;;18.67;8.63;;;3.50;99.90;;;;;;5025939;28;20067;-68
2022/11/27 04:40:50;;;;;;;23.85;8.13;;;3.50;99.90;;;;;;5025301;28;20048;-68
2022/11/27 04:43:15;;;;;;;25.00;8.75;;;3.50;99.90;;;;;;5026174;28;20029;-67
2022/11/27 04:45:42;;;;;;;20.67;7.78;;;3.50;99.90;;;;;;5031019;28;20029;-67
2022/11/27 04:48:08;;;;;;;20.13;8.68;;;3.50;99.90;;;;;;5042728;28;20510;-68
2022/11/27 04:50:33;;;;;;;23.40;8.40;;;3.60;99.90;;;;;;5029315;28;20017;-67
2022/11/27 04:52:59;;;;;;;20.77;8.45;;;3.60;99.90;;;;;;5025709;28;20092;-67
2022/11/27 04:55:24;;;;;;;16.85;7.32;;;3.60;99.90;;;;;;5025304;28;20380;-67
2022/11/27 04:57:50;;;;;;;24.60;8.48;;;3.60;99.90;;;;;;5020220;28;20060;-67
2022/11/27 05:00:16;;;;;;;21.67;8.43;;;3.70;99.90;;;;;;5020159;28;20029;-67
2022/11/27 05:02:42;;;;;;;21.02;8.48;;;3.70;99.90;;;;;;5020302;28;20026;-68
2022/11/27 05:05:08;;;;;;;24.13;8.23;;;3.70;99.90;;;;;;5024028;28;20021;-67
2022/11/27 05:07:33;;;;;;;26.48;8.70;;;3.70;99.90;;;;;;5027795;28;20032;-68
2022/11/27 05:09:59;;;;;;;14.73;7.25;;;3.70;99.90;;;;;;5023399;28;20383;-67
2022/11/27 05:12:24;;;;;;;21.38;8.40;;;3.70;99.90;;;;;;5027148;28;20033;-68
2022/11/27 05:14:50;;;;;;;19.85;8.43;;;3.80;99.90;;;;;;5002926;28;20033;-68
2022/11/27 05:17:15;;;;;;;18.73;7.75;;;3.80;99.90;;;;;;5025359;28;20095;-67
2022/11/27 05:19:41;;;;;;;25.20;7.97;;;3.80;99.90;;;;;;5027626;28;20070;-66
2022/11/27 05:22:06;;;;;;;19.15;7.07;;;3.90;99.90;;;;;;5027104;28;20030;-68
2022/11/27 05:24:32;;;;;;;15.57;7.93;;;3.90;99.90;;;;;;5031260;28;20061;-68
2022/11/27 05:26:58;;;;;;;20.52;8.45;;;4.00;99.90;;;;;;5028714;28;20034;-68
2022/11/27 05:29:25;;;;;;;18.88;8.40;;;4.00;99.90;;;;;;5014095;28;20408;-68
2022/11/27 05:31:51;;;;;;;23.10;7.82;;;4.00;99.90;;;;;;5020063;28;20080;-67
2022/11/27 05:34:17;;;;;;;17.95;7.68;;;4.00;99.90;;;;;;5024007;28;20526;-67
2022/11/27 05:36:43;;;;;;;19.85;9.02;;;4.10;99.90;;;;;;5025605;28;20399;-68
2022/11/27 05:39:09;;;;;;;16.38;7.53;;;4.10;99.90;;;;;;5021288;28;20026;-68
2022/11/27 05:41:36;;;;;;;17.15;8.27;;;4.10;99.90;;;;;;5023803;28;20029;-67
2022/11/27 05:44:03;;;;;;;23.25;8.55;;;4.10;99.90;;;;;;5024409;28;20406;-68
2022/11/27 05:46:29;;;;;;;20.15;7.78;;;4.10;99.90;;;;;;5019274;28;20570;-67
2022/11/27 05:48:54;;;;;;;18.50;8.23;;;4.20;99.90;;;;;;5024150;28;20067;-68
2022/11/27 05:51:20;;;;;;;13.80;7.35;;;4.20;99.90;;;;;;5021468;28;20087;-67
2022/11/27 05:53:46;;;;;;;25.85;7.80;;;4.20;99.90;;;;;;5026554;28;20429;-67
2022/11/27 05:56:15;;;;;;;16.58;7.97;;;4.20;99.90;;;;;;5016213;28;20084;-67
2022/11/27 05:58:43;;;;;;;18.05;7.75;;;4.20;99.90;;;;;;5020225;28;20044;-66
2022/11/27 06:01:10;;;;;;;15.52;7.60;;;4.20;99.90;;;;;;5019777;28;20041;-67
2022/11/27 06:03:37;;;;;;;18.15;7.68;;;4.20;99.90;;;;;;5022472;28;20137;-67
2022/11/27 06:06:08;;;;;;;16.08;7.15;;;4.20;99.90;;;;;;5023340;28;20281;-67
2022/11/27 06:08:35;;;;;;;25.10;8.40;;;4.20;99.90;;;;;;5027786;28;20083;-68
2022/11/27 06:11:06;;;;;;;18.80;7.45;;;4.20;99.90;;;;;;5020289;28;20037;-68
2022/11/27 06:13:32;;;;;;;17.80;7.32;;;4.20;99.90;;;;;;5011021;28;20050;-68
2022/11/27 06:15:57;;;;;;;19.73;7.15;;;4.20;99.90;;;;;;5028016;28;20135;-68
2022/11/27 06:18:23;;;;;;;14.45;7.68;;;4.30;99.90;;;;;;5031161;28;20076;-67
2022/11/27 06:20:48;;;;;;;18.77;6.63;;;4.30;99.90;;;;;;5028972;28;20033;-68
2022/11/27 06:23:14;;;;;;;13.65;7.25;;;4.30;99.90;;;;;;5027786;28;20030;-68
2022/11/27 06:25:39;;;;;;;16.05;6.30;;;4.40;99.90;;;;;;5030115;28;20037;-67
2022/11/27 06:28:05;;;;;;;16.08;7.45;;;4.40;99.90;;;;;;5027135;28;20033;-68
2022/11/27 06:30:30;;;;;;;14.38;6.53;;;4.40;99.90;;;;;;5029120;28;20021;-68
2022/11/27 06:32:56;;;;;;;21.52;6.65;;;4.40;99.90;;;;;;5031894;28;20033;-68
2022/11/27 06:35:23;;;;;;;15.43;6.53;;;4.40;99.90;;;;;;5024777;28;20061;-68
2022/11/27 06:37:48;;;;;;;15.10;6.63;;;4.50;99.90;;;;;;5031156;28;20021;-68
2022/11/27 06:40:14;;;;;;;15.05;6.97;;;4.50;99.90;;;;;;5034665;28;20024;-68
2022/11/27 06:42:39;;;;;;;21.13;7.25;;;4.50;99.90;;;;;;5047008;28;20313;-68
2022/11/27 06:45:05;;;;;;;17.25;5.97;;;4.50;99.90;;;;;;5035354;28;20044;-68
2022/11/27 06:47:31;;;;;;;13.60;6.95;;;4.50;99.90;;;;;;5021696;28;20386;-68
2022/11/27 06:49:57;;;;;;;14.48;6.03;;;4.60;99.90;;;;;;5028717;28;20030;-68
2022/11/27 06:52:22;;;;;;;16.85;7.20;;;4.60;99.90;;;;;;5026153;28;20060;-68
2022/11/27 06:54:48;;;;;;;15.10;6.63;;;4.60;99.90;;;;;;5024773;28;20088;-67
2022/11/27 06:57:13;;;;;;;16.13;6.75;;;4.70;99.90;;;;;;5023655;28;20113;-68
2022/11/27 06:59:39;;;;;;;15.18;5.97;;;4.70;99.90;;;;;;5043169;28;20120;-67
2022/11/27 07:02:05;;;;;;;13.75;6.10;;;4.70;99.90;;;;;;5025377;28;20109;-68
2022/11/27 07:04:30;;;;;;;11.90;6.35;;;4.70;99.90;;;;;;5026748;28;20112;-67
2022/11/27 07:06:56;;;;;;;11.80;6.05;;;4.70;99.90;;;;;;5032038;28;20030;-67
2022/11/27 07:09:21;;;;;;;15.32;6.25;;;4.70;99.90;;;;;;5038750;28;20040;-68
2022/11/27 07:11:47;;;;;;;11.32;5.20;;;4.70;99.90;;;;;;5031216;28;20037;-68
2022/11/27 07:14:12;;;;;;;14.13;6.22;;;4.80;99.90;;;;;;5001984;28;20500;-68
2022/11/27 07:16:38;;;;;;;16.30;6.10;;;4.80;99.90;;;;;;5019465;28;20103;-68
2022/11/27 07:19:06;;;;;;;15.07;6.70;;;4.80;99.90;;;;;;5021744;28;20045;-68
2022/11/27 07:21:32;;;;;;;15.85;6.78;;;4.80;99.90;;;;;;5020588;28;20113;-68
2022/11/27 07:23:58;;;;;;;16.67;6.30;;;4.90;99.90;;;;;;5023258;28;20446;-68
2022/11/27 07:26:26;;;;;;;14.15;6.50;;;4.90;99.90;;;;;;5021265;28;20034;-67
2022/11/27 07:28:52;;;;;;;13.45;6.10;;;5.00;99.90;;;;;;5025939;28;20022;-68
2022/11/27 07:31:20;;;;;;;15.23;6.90;;;5.00;99.90;;;;;;5022811;28;20535;-67
2022/11/27 07:33:46;;;;;;;13.18;5.30;;;5.10;99.90;;;;;;5024854;28;20462;-67
2022/11/27 07:36:14;;;;;;;17.98;6.43;;;5.10;99.90;;;;;;5027100;28;20029;-68
2022/11/27 07:38:39;;;;;;;18.08;6.90;;;5.20;99.90;;;;;;5024635;28;20041;-67
2022/11/27 07:41:05;;;;;;;13.40;5.90;;;5.30;99.90;;;;;;5020250;28;20105;-67
2022/11/27 07:43:32;;;;;;;14.63;5.60;;;5.30;99.90;;;;;;5026422;28;20033;-67
2022/11/27 07:46:01;;;;;;;14.98;5.53;;;5.40;99.90;;;;;;5027365;28;20462;-68
2022/11/27 07:48:27;;;;;;;14.52;5.88;;;5.40;99.90;;;;;;5024465;28;20030;-68
2022/11/27 07:50:52;;;;;;;11.68;5.35;;;5.40;99.90;;;;;;5022473;28;20514;-67
2022/11/27 07:53:18;;;;;;;14.27;6.55;;;5.50;99.90;;;;;;5030857;28;20037;-68
2022/11/27 07:55:44;;;;;;;14.00;5.75;;;5.50;99.90;;;;;;5021923;28;20021;-67
2022/11/27 07:58:09;;;;;;;12.05;6.65;;;5.50;99.90;;;;;;5022449;28;20021;-68
2022/11/27 08:00:35;;;;;;;17.83;5.60;;;5.50;99.90;;;;;;5023493;28;20077;-68
2022/11/27 08:03:01;;;;;;;12.52;5.50;;;5.60;99.90;;;;;;5024217;28;20535;-67
2022/11/27 08:05:27;;;;;;;17.52;5.30;;;5.60;99.90;;;;;;5028939;28;20116;-67
2022/11/27 08:07:53;;;;;;;16.92;5.53;;;5.60;99.90;;;;;;5028569;28;20510;-67
2022/11/27 08:10:19;;;;;;;14.43;5.53;;;5.70;99.90;;;;;;5028236;28;20141;-67
2022/11/27 08:12:44;;;;;;;10.43;5.50;;;5.70;99.90;;;;;;5024045;28;20172;-67
2022/11/27 08:15:10;;;;;;;21.42;5.95;;;5.80;99.90;;;;;;5009781;28;20068;-67
2022/11/27 08:17:35;;;;;;;13.27;5.20;;;5.90;99.90;;;;;;5030881;28;20038;-68
2022/11/27 08:20:01;;;;;;;11.07;5.28;;;5.90;99.90;;;;;;5021963;28;20069;-67
2022/11/27 08:22:27;;;;;;;21.35;5.95;;;6.00;99.90;;;;;;5027449;28;20131;-68
2022/11/27 08:24:53;;;;;;;10.38;5.32;;;6.10;99.90;;;;;;5036824;28;20037;-68
2022/11/27 08:27:19;;;;;;;13.60;5.82;;;6.20;99.90;;;;;;5030358;28;20159;-68
2022/11/27 08:29:46;;;;;;;11.25;5.40;;;6.20;99.90;;;;;;5024732;28;20602;-68
2022/11/27 08:32:12;;;;;;;13.48;5.75;;;6.30;99.90;;;;;;5023185;28;20025;-68
2022/11/27 08:34:37;;;;;;;14.68;5.60;;;6.40;99.90;;;;;;5030140;28;20818;-67
2022/11/27 08:37:04;;;;;;;13.27;6.28;;;6.50;99.90;;;;;;5029314;28;20053;-67
2022/11/27 08:39:30;;;;;;;11.40;5.45;;;6.50;99.90;;;;;;5025120;28;20052;-67
2022/11/27 08:41:55;;;;;;;19.33;6.43;;;6.60;99.90;;;;;;5022064;28;20029;-68
2022/11/27 08:44:21;;;;;;;13.07;6.45;;;6.60;99.90;;;;;;5023198;28;20797;-67
2022/11/27 08:46:47;;;;;;;12.20;5.68;;;6.70;99.90;;;;;;5028495;28;20044;-67
2022/11/27 08:49:13;;;;;;;13.65;6.28;;;6.70;99.90;;;;;;5021865;28;20071;-67
2022/11/27 08:51:38;;;;;;;14.65;6.15;;;6.80;99.90;;;;;;5035223;28;20068;-68
2022/11/27 08:54:04;;;;;;;15.30;5.75;;;6.80;99.90;;;;;;5031071;28;20041;-67
2022/11/27 08:56:30;;;;;;;21.70;5.90;;;6.90;99.90;;;;;;5023008;28;20057;-67
2022/11/27 08:58:56;;;;;;;15.70;5.53;;;6.90;99.90;;;;;;5016064;28;20065;-67
2022/11/27 09:01:27;;;;;;;13.85;6.07;;;7.00;99.90;;;;;;5014420;28;20073;-68
2022/11/27 09:03:53;;;;;;;15.35;6.25;;;7.00;99.90;;;;;;5017850;28;20543;-68
2022/11/27 09:06:21;;;;;;;13.93;6.28;;;7.00;99.90;;;;;;5023006;28;20152;-67
2022/11/27 09:08:47;;;;;;;10.98;6.75;;;7.10;99.90;;;;;;5019750;28;20042;-68
2022/11/27 09:11:15;;;;;;;13.05;5.68;;;7.10;99.90;;;;;;5022082;28;20025;-68
2022/11/27 09:13:42;;;;;;;10.07;5.63;;;7.20;99.90;;;;;;5021538;28;20056;-68
2022/11/27 09:16:10;;;;;;;15.77;7.28;;;7.20;99.90;;;;;;5006082;28;20049;-68
2022/11/27 09:18:36;;;;;;;11.65;6.10;;;7.20;99.90;;;;;;5023056;28;20108;-68
2022/11/27 09:21:05;;;;;;;10.85;5.50;;;7.20;99.90;;;;;;5024331;28;20151;-68
2022/11/27 09:23:30;;;;;;;12.57;6.05;;;7.20;99.90;;;;;;5024747;28;20044;-67
2022/11/27 09:26:06;;;;;;;13.90;6.10;;;7.30;99.90;;;;;;5025495;28;20437;-67
2022/11/27 09:28:32;;;;;;;15.30;7.18;;;7.30;99.90;;;;;;5019681;28;20124;-67
2022/11/27 09:30:59;;;;;;;15.25;5.60;;;7.40;99.90;;;;;;5020693;28;20044;-68
2022/11/27 09:33:27;;;;;;;11.30;5.70;;;7.50;99.90;;;;;;5025331;28;20038;-68
2022/11/27 09:35:52;;;;;;;18.25;5.82;;;7.60;99.90;;;;;;5024951;28;20033;-68
2022/11/27 09:38:18;;;;;;;10.88;5.32;;;7.60;99.90;;;;;;5022918;28;20117;-68
2022/11/27 09:40:49;;;;;;;15.18;6.15;;;7.60;99.90;;;;;;5023480;28;20022;-68
2022/11/27 09:43:16;;;;;;;12.98;5.95;;;7.60;99.90;;;;;;5021539;28;20179;-68
2022/11/27 09:45:49;;;;;;;16.02;5.95;;;7.60;99.90;;;;;;5025642;28;20036;-68
2022/11/27 09:48:21;;;;;;;20.45;5.47;;;7.60;99.90;;;;;;5028069;28;20037;-67
2022/11/27 09:50:50;;;;;;;13.60;6.07;;;7.50;99.90;;;;;;5032404;28;20056;-68
2022/11/27 09:53:22;;;;;;;13.00;6.57;;;7.40;99.90;;;;;;5027034;28;20103;-68
2022/11/27 09:55:50;;;;;;;13.65;5.38;;;7.40;99.90;;;;;;5031631;28;20037;-67
2022/11/27 09:58:37;;;;;;;10.85;6.40;;;7.40;99.90;;;;;;5027544;28;20036;-67
2022/11/27 10:01:15;;;;;;;14.50;5.45;;;7.40;99.90;;;;;;5027022;28;20057;-68
2022/11/27 10:03:42;;;;;;;17.00;5.97;;;7.50;99.90;;;;;;5027653;28;20037;-68
2022/11/27 10:06:22;;;;;;;12.98;6.20;;;7.60;99.90;;;;;;5028563;28;20149;-67
2022/11/27 10:09:11;;;;;;;14.38;5.70;;;7.70;99.90;;;;;;5028768;28;20030;-68
2022/11/27 10:11:58;;;;;;;13.02;5.68;;;7.80;99.90;;;;;;5027623;28;20387;-68
2022/11/27 10:14:51;;;;;;;11.00;5.82;;;7.90;99.90;;;;;;5009264;28;20073;-68
2022/11/27 10:17:22;;;;;;;11.30;5.43;;;8.00;99.90;;;;;;5032509;28;20058;-68
2022/11/27 10:20:12;;;;;;;12.45;6.07;;;8.20;99.90;;;;;;5029981;28;20029;-67
2022/11/27 10:23:16;;;;;;;13.73;4.85;;;8.30;99.90;;;;;;5022953;28;20030;-68
2022/11/27 10:25:49;;;;;;;10.52;5.45;;;8.50;99.90;;;;;;5024752;28;20029;-68
2022/11/27 10:28:36;;;;;;;11.60;5.35;;;8.50;99.90;;;;;;5021837;28;20041;-68
2022/11/27 10:31:13;;;;;;;8.05;4.82;;;8.50;99.90;;;;;;5017848;28;20056;-68
2022/11/27 10:33:45;;;;;;;9.05;4.90;;;8.60;99.90;;;;;;5026089;28;20022;-68
2022/11/27 10:36:25;;;;;;;11.52;5.82;;;8.70;99.90;;;;;;5039556;28;20035;-68
2022/11/27 10:38:54;;;;;;;8.27;4.18;;;8.70;99.90;;;;;;5021865;28;20021;-67
2022/11/27 10:41:38;;;;;;;8.40;4.60;;;8.70;99.90;;;;;;5013509;28;20068;-68
2022/11/27 10:44:26;;;;;;;11.25;5.10;;;8.90;99.90;;;;;;5025533;28;20029;-68
2022/11/27 10:46:57;;;;;;;7.95;4.20;;;8.90;99.90;;;;;;5018844;28;20361;-68
2022/11/27 10:49:22;;;;;;;13.07;4.53;;;9.00;99.90;;;;;;5023735;28;20391;-68
2022/11/27 10:51:48;;;;;;;26.55;5.72;;;9.10;99.90;;;;;;5019176;28;20044;-68
2022/11/27 10:54:27;;;;;;;9.00;4.28;;;9.00;99.90;;;;;;5022371;28;20593;-68
2022/11/27 10:57:17;;;;;;;11.90;4.57;;;9.00;99.90;;;;;;5020425;28;20092;-68
2022/11/27 10:59:57;;;;;;;8.77;3.72;;;8.90;99.90;;;;;;5024831;28;20022;-68
2022/11/27 11:02:31;;;;;;;7.97;4.18;;;8.80;99.90;;;;;;5027978;28;20031;-68
2022/11/27 11:04:57;;;;;;;15.40;5.28;;;8.80;99.90;;;;;;5023993;28;20021;-68
2022/11/27 11:07:28;;;;;;;12.13;4.70;;;8.80;99.90;;;;;;5028891;28;20053;-68
2022/11/27 11:09:55;;;;;;;10.80;5.72;;;8.70;99.90;;;;;;5023716;28;20025;-68
2022/11/27 11:12:22;;;;;;;11.45;4.50;;;8.80;99.90;;;;;;5026190;28;20391;-67
2022/11/27 11:14:59;;;;;;;11.05;4.53;;;8.80;99.90;;;;;;5013023;28;20050;-68
2022/11/27 11:17:33;;;;;;;9.55;4.60;;;8.90;99.90;;;;;;5021405;28;20029;-67
2022/11/27 11:19:59;;;;;;;11.27;4.22;;;9.00;99.90;;;;;;5017122;28;20030;-67
2022/11/27 11:22:27;;;;;;;6.60;3.30;;;9.10;99.90;;;;;;5026876;28;20056;-67
2022/11/27 11:24:52;;;;;;;13.45;5.03;;;9.10;99.90;;;;;;5025618;28;20764;-67
2022/11/27 11:27:28;;;;;;;7.18;3.65;;;9.20;99.90;;;;;;5025331;28;20033;-67
2022/11/27 11:30:00;;;;;;;8.45;3.95;;;9.20;99.90;;;;;;5030048;28;20375;-67
2022/11/27 11:32:27;;;;;;;11.00;4.28;;;9.20;99.90;;;;;;5024208;28;20101;-66
2022/11/27 11:35:09;;;;;;;10.93;3.80;;;9.20;99.90;;;;;;5024506;28;20430;-68
2022/11/27 11:37:38;;;;;;;8.43;4.07;;;9.30;99.90;;;;;;5015699;28;20087;-68
2022/11/27 11:40:07;;;;;;;10.20;4.28;;;9.40;99.90;;;;;;5023475;28;20026;-67
2022/11/27 11:42:35;;;;;;;10.30;4.00;;;9.30;99.90;;;;;;5030135;28;20471;-68
2022/11/27 11:45:04;;;;;;;10.98;4.90;;;9.30;99.90;;;;;;5029834;28;20083;-67
2022/11/27 11:47:30;;;;;;;13.02;4.75;;;9.40;99.90;;;;;;5041193;28;20052;-68
2022/11/27 11:49:57;;;;;;;7.00;4.10;;;9.40;99.90;;;;;;5025011;28;20452;-68
2022/11/27 11:52:38;;;;;;;9.40;3.45;;;9.50;99.90;;;;;;5019499;28;20087;-69
2022/11/27 11:55:29;;;;;;;9.75;3.80;;;9.50;99.90;;;;;;5025940;28;20084;-69
2022/11/27 11:58:12;;;;;;;13.60;3.65;;;9.40;99.90;;;;;;5024320;28;20033;-67
2022/11/27 12:00:45;;;;;;;14.73;4.85;;;9.40;99.90;;;;;;5022390;28;20021;-68
2022/11/27 12:03:31;;;;;;;5.50;3.50;;;9.40;99.90;;;;;;5023150;28;20075;-66
2022/11/27 12:06:08;;;;;;;7.68;3.80;;;9.30;99.90;;;;;;5023948;28;20148;-68
2022/11/27 12:08:42;;;;;;;6.15;3.67;;;9.20;99.90;;;;;;5019884;28;20079;-68
2022/11/27 12:11:15;;;;;;;;;;;9.20;99.90;;;;;;5025817;28;20044;-68
2022/11/27 12:13:48;;;;;;;8.75;3.55;;;9.20;99.90;;;;;;5019207;28;19931;-68
2022/11/27 12:16:38;;;;;;;5.65;3.00;;;9.20;99.90;;;;;;5008088;28;20072;-67
2022/11/27 12:19:25;;;;;;;7.07;3.60;;;9.20;99.90;;;;;;5022532;28;20471;-67
2022/11/27 12:22:09;;;;;;;9.48;3.72;;;9.20;99.90;;;;;;5020714;28;20060;-68
2022/11/27 12:25:02;;;;;;;4.68;3.40;;;9.10;99.90;;;;;;5024896;28;20021;-70
2022/11/27 12:27:36;;;;;;;6.70;3.20;;;9.20;99.90;;;;;;5019789;28;20034;-67
2022/11/27 12:30:18;;;;;;;6.47;3.00;;;9.20;99.90;;;;;;5024261;28;20036;-67
2022/11/27 12:32:56;;;;;;;6.80;3.35;;;9.20;99.90;;;;;;5017879;28;20109;-67
2022/11/27 12:35:53;;;;;;;9.13;3.05;;;9.30;99.90;;;;;;5017360;28;20041;-67
2022/11/27 12:38:22;;;;;;;8.20;3.05;;;9.30;99.90;;;;;;5004720;28;20033;-66
2022/11/27 12:41:09;;;;;;;6.60;3.00;;;9.30;99.90;;;;;;5020156;28;20044;-67
2022/11/27 12:43:42;;;;;;;8.38;2.95;;;9.30;99.90;;;;;;5022484;28;20112;-68
2022/11/27 12:46:30;;;;;;;7.35;2.80;;;9.40;99.90;;;;;;5025721;28;20034;-67
2022/11/27 12:49:01;;;;;;;9.60;2.85;;;9.30;99.90;;;;;;5019879;28;20437;-67
2022/11/27 12:51:41;;;;;;;5.60;2.55;;;9.30;99.90;;;;;;5024852;28;20411;-67
2022/11/27 12:54:13;;;;;;;3.63;2.70;;;9.20;99.90;;;;;;5022586;28;22054;-67
2022/11/27 12:56:56;;;;;;;4.35;2.47;;;9.20;99.90;;;;;;5019643;28;20032;-67
2022/11/27 12:59:32;;;;;;;8.77;2.47;;;9.00;99.90;;;;;;5018920;28;20068;-67
2022/11/27 13:02:06;;;;;;;9.00;2.58;;;8.90;99.90;;;;;;5025833;28;20017;-67
2022/11/27 13:04:40;;;;;;;7.28;3.00;;;8.90;99.90;;;;;;5026909;28;20037;-67